createdAt,value
2017-11-10T00:02:11.620Z,22.83
2017-11-10T00:04:39.501Z,23.40
2017-11-10T00:07:07.041Z,25.40
2017-11-10T00:09:34.576Z,23.67
2017-11-10T00:12:02.136Z,24.17
2017-11-10T00:14:29.668Z,25.07
2017-11-10T00:16:57.203Z,25.00
2017-11-10T00:19:24.780Z,24.57
2017-11-10T00:21:52.308Z,25.17
2017-11-10T00:24:19.849Z,23.58
2017-11-10T00:26:47.441Z,22.95
2017-11-10T00:29:16.404Z,24.08
2017-11-10T00:31:43.933Z,23.90
2017-11-10T00:34:11.510Z,23.60
2017-11-10T00:36:39.814Z,22.73
2017-11-10T00:39:07.355Z,24.30
2017-11-10T00:41:34.932Z,24.50
2017-11-10T00:44:02.464Z,22.23
2017-11-10T00:46:29.995Z,24.80
2017-11-10T00:48:57.584Z,23.80
2017-11-10T00:51:25.890Z,24.02
2017-11-10T00:53:53.432Z,23.75
2017-11-10T00:56:20.989Z,23.57
2017-11-10T00:58:48.520Z,22.90
2017-11-10T01:01:16.395Z,25.63
2017-11-10T01:03:43.956Z,25.57
2017-11-10T01:06:11.881Z,24.42
2017-11-10T01:08:39.419Z,26.25
2017-11-10T01:11:07.024Z,23.23
2017-11-10T01:13:36.503Z,24.73
2017-11-10T01:16:04.036Z,25.70
2017-11-10T01:18:31.593Z,24.17
2017-11-10T01:20:59.120Z,24.73
2017-11-10T01:23:26.653Z,22.87
2017-11-10T01:25:54.217Z,24.60
2017-11-10T01:28:21.748Z,25.80
2017-11-10T01:30:49.297Z,24.03
2017-11-10T01:33:16.884Z,24.73
2017-11-10T01:35:46.451Z,24.27
2017-11-10T01:38:24.502Z,23.45
2017-11-10T01:43:34.233Z,23.73
2017-11-10T01:46:01.764Z,23.50
2017-11-10T01:48:30.853Z,23.93
2017-11-10T01:50:59.208Z,21.60
2017-11-10T01:53:26.741Z,23.10
2017-11-10T01:55:54.276Z,23.83
2017-11-10T01:58:21.837Z,23.80
2017-11-10T02:00:49.374Z,21.30
2017-11-10T02:03:17.676Z,24.03
2017-11-10T02:05:45.232Z,21.90
2017-11-10T02:08:14.724Z,23.73
2017-11-10T02:10:42.268Z,23.03
2017-11-10T02:13:09.891Z,23.03
2017-11-10T02:15:37.421Z,24.30
2017-11-10T02:18:04.960Z,23.20
2017-11-10T02:20:33.279Z,23.40
2017-11-10T02:23:00.808Z,23.57
2017-11-10T02:25:29.102Z,23.67
2017-11-10T02:27:56.661Z,22.83
2017-11-10T02:30:24.198Z,22.53
2017-11-10T02:32:51.741Z,23.13
2017-11-10T02:35:19.333Z,24.37
2017-11-10T02:37:46.866Z,21.87
2017-11-10T02:40:16.296Z,22.55
2017-11-10T02:42:43.855Z,21.20
2017-11-10T02:45:13.168Z,22.23
2017-11-10T02:47:40.701Z,23.23
2017-11-10T02:50:08.260Z,21.80
2017-11-10T02:52:35.785Z,21.00
2017-11-10T02:55:03.320Z,21.77
2017-11-10T02:57:30.916Z,21.45
2017-11-10T02:59:58.452Z,23.05
2017-11-10T03:02:25.985Z,23.70
2017-11-10T03:04:53.548Z,22.40
2017-11-10T03:07:21.079Z,22.50
2017-11-10T03:09:48.856Z,21.53
2017-11-10T03:12:16.448Z,21.95
2017-11-10T03:14:43.984Z,22.53
2017-11-10T03:17:11.506Z,22.20
2017-11-10T03:19:39.080Z,22.30
2017-11-10T03:22:07.385Z,22.30
2017-11-10T03:24:34.925Z,22.77
2017-11-10T03:27:03.400Z,23.02
2017-11-10T03:29:30.932Z,21.10
2017-11-10T03:31:58.472Z,22.20
2017-11-10T03:34:26.033Z,21.90
2017-11-10T03:36:53.569Z,21.43
2017-11-10T03:39:21.108Z,21.80
2017-11-10T03:41:48.704Z,22.43
2017-11-10T03:44:16.415Z,22.70
2017-11-10T03:46:44.720Z,23.70
2017-11-10T03:49:12.280Z,22.37
2017-11-10T03:51:39.816Z,22.53
2017-11-10T03:54:07.357Z,21.07
2017-11-10T03:56:34.921Z,22.80
2017-11-10T03:59:02.460Z,21.50
2017-11-10T04:01:29.993Z,22.00
2017-11-10T04:03:57.576Z,22.77
2017-11-10T04:06:25.153Z,21.40
2017-11-10T04:08:52.702Z,22.60
2017-11-10T04:11:20.308Z,22.70
2017-11-10T04:13:48.621Z,22.60
2017-11-10T04:16:16.412Z,22.43
2017-11-10T04:18:43.959Z,21.53
2017-11-10T04:21:11.497Z,21.50
2017-11-10T04:23:39.033Z,21.37
2017-11-10T04:26:06.780Z,22.50
2017-11-10T04:28:34.325Z,23.50
2017-11-10T04:31:01.852Z,22.50
2017-11-10T04:33:29.427Z,22.23
2017-11-10T04:35:56.961Z,22.30
2017-11-10T04:38:24.505Z,21.40
2017-11-10T04:40:52.064Z,21.83
2017-11-10T04:43:19.609Z,21.62
2017-11-10T04:45:47.145Z,21.60
2017-11-10T04:48:16.496Z,22.60
2017-11-10T04:50:44.032Z,22.13
2017-11-10T04:53:11.576Z,21.43
2017-11-10T04:55:39.179Z,19.53
2017-11-10T04:58:06.714Z,20.43
2017-11-10T05:00:34.265Z,19.23
2017-11-10T05:03:01.822Z,20.73
2017-11-10T05:05:30.124Z,19.50
2017-11-10T05:07:57.659Z,20.20
2017-11-10T05:10:26.008Z,19.80
2017-11-10T05:12:53.704Z,19.70
2017-11-10T05:15:22.016Z,20.07
2017-11-10T05:17:49.600Z,18.93
2017-11-10T05:20:17.184Z,20.00
2017-11-10T05:22:44.729Z,20.10
2017-11-10T05:25:12.291Z,19.20
2017-11-10T05:27:40.166Z,21.70
2017-11-10T05:30:07.717Z,27.40
2017-11-10T05:32:35.309Z,19.50
2017-11-10T05:35:03.617Z,20.23
2017-11-10T05:37:31.161Z,18.93
2017-11-10T05:39:59.503Z,19.70
2017-11-10T05:42:27.045Z,18.20
2017-11-10T05:44:54.584Z,18.70
2017-11-10T05:47:22.152Z,19.30
2017-11-10T05:49:49.689Z,18.60
2017-11-10T05:52:17.228Z,18.60
2017-11-10T05:54:44.812Z,19.07
2017-11-10T05:57:12.349Z,21.20
2017-11-10T05:59:40.651Z,19.07
2017-11-10T06:02:08.216Z,19.00
2017-11-10T06:04:35.761Z,21.17
2017-11-10T06:07:03.305Z,22.17
2017-11-10T06:09:30.865Z,21.33
2017-11-10T06:11:58.412Z,20.70
2017-11-10T06:14:26.288Z,19.98
2017-11-10T06:16:53.872Z,19.70
2017-11-10T06:19:21.405Z,18.37
2017-11-10T06:21:48.947Z,17.23
2017-11-10T06:24:16.521Z,18.12
2017-11-10T06:26:44.819Z,18.90
2017-11-10T06:29:12.356Z,18.60
2017-11-10T06:31:40.681Z,18.57
2017-11-10T06:34:09.239Z,18.23
2017-11-10T06:36:36.837Z,18.40
2017-11-10T06:39:04.424Z,19.40
2017-11-10T06:41:31.948Z,18.17
2017-11-10T06:43:59.484Z,19.75
2017-11-10T06:46:27.040Z,19.77
2017-11-10T06:48:54.572Z,20.97
2017-11-10T06:51:22.112Z,20.20
2017-11-10T06:53:49.668Z,18.93
2017-11-10T06:56:17.201Z,19.37
2017-11-10T06:58:44.741Z,18.97
2017-11-10T07:01:12.351Z,18.30
2017-11-10T07:03:39.893Z,17.40
2017-11-10T07:06:07.419Z,18.23
2017-11-10T07:08:34.988Z,17.17
2017-11-10T07:11:02.524Z,18.75
2017-11-10T07:13:30.824Z,18.03
2017-11-10T07:15:58.625Z,19.33
2017-11-10T07:18:26.172Z,21.90
2017-11-10T07:20:53.729Z,20.57
2017-11-10T07:23:21.352Z,20.90
2017-11-10T07:25:49.653Z,24.17
2017-11-10T07:28:17.945Z,19.93
2017-11-10T07:30:45.501Z,21.27
2017-11-10T07:33:24.832Z,24.73
2017-11-10T07:38:42.281Z,18.30
2017-11-10T07:41:09.817Z,21.53
2017-11-10T07:43:37.356Z,19.35
2017-11-10T07:46:04.919Z,22.10
2017-11-10T07:48:32.669Z,20.92
2017-11-10T07:51:00.225Z,22.40
2017-11-10T07:53:27.788Z,19.13
2017-11-10T07:55:55.320Z,21.70
2017-11-10T07:58:22.865Z,19.80
2017-11-10T08:00:50.644Z,19.43
2017-11-10T08:03:18.180Z,18.33
2017-11-10T08:05:45.721Z,17.90
2017-11-10T08:08:25.606Z,16.95
2017-11-10T08:20:34.492Z,18.45
2017-11-10T08:23:02.029Z,19.00
2017-11-10T08:25:29.563Z,19.40
2017-11-10T08:27:57.142Z,19.30
2017-11-10T08:30:24.681Z,18.20
2017-11-10T08:32:52.223Z,17.40
2017-11-10T08:35:20.558Z,19.30
2017-11-10T08:37:48.105Z,19.70
2017-11-10T08:40:17.276Z,18.73
2017-11-10T08:42:44.864Z,19.67
2017-11-10T08:45:12.408Z,18.35
2017-11-10T08:47:39.941Z,18.17
2017-11-10T08:50:08.288Z,18.15
2017-11-10T08:52:35.829Z,17.73
2017-11-10T08:55:03.378Z,18.23
2017-11-10T08:57:30.938Z,20.37
2017-11-10T08:59:58.472Z,20.48
2017-11-10T09:02:26.018Z,19.13
2017-11-10T09:04:54.365Z,21.50
2017-11-10T09:07:21.904Z,20.83
2017-11-10T09:09:49.441Z,19.50
2017-11-10T09:12:17.010Z,20.50
2017-11-10T09:14:45.311Z,21.47
2017-11-10T09:17:25.053Z,20.30
2017-11-10T09:22:40.239Z,20.30
2017-11-10T09:25:07.759Z,21.00
2017-11-10T09:27:35.302Z,20.27
2017-11-10T09:30:09.300Z,21.63
2017-11-10T09:32:42.533Z,22.30
2017-11-10T09:35:26.857Z,21.00
2017-11-10T09:37:57.899Z,21.20
2017-11-10T09:40:43.175Z,21.60
2017-11-10T09:46:18.047Z,20.60
2017-11-10T09:49:04.384Z,20.60
2017-11-10T09:51:37.659Z,21.63
2017-11-10T09:54:13.683Z,20.90
2017-11-10T09:59:52.400Z,20.53
2017-11-10T10:02:29.873Z,21.27
2017-11-10T10:05:01.901Z,22.23
2017-11-10T10:07:34.264Z,23.80
2017-11-10T10:10:07.478Z,21.90
2017-11-10T10:12:47.615Z,22.07
2017-11-10T10:15:19.263Z,21.50
2017-11-10T10:18:01.526Z,21.50
2017-11-10T10:20:33.689Z,22.33
2017-11-10T10:23:01.801Z,21.37
2017-11-10T10:25:30.125Z,22.70
2017-11-10T10:27:57.675Z,22.00
2017-11-10T10:30:26.180Z,21.60
2017-11-10T10:32:53.781Z,24.00
2017-11-10T10:35:22.082Z,23.07
2017-11-10T10:37:49.625Z,21.40
2017-11-10T10:40:17.952Z,22.80
2017-11-10T10:42:45.481Z,21.77
2017-11-10T10:45:14.630Z,22.95
2017-11-10T10:47:42.196Z,22.37
2017-11-10T10:50:09.737Z,22.03
2017-11-10T10:52:37.356Z,21.70
2017-11-10T10:55:05.003Z,21.20
2017-11-10T10:57:32.550Z,22.20
2017-11-10T11:00:00.856Z,21.10
2017-11-10T11:02:28.441Z,22.23
2017-11-10T11:04:55.980Z,22.90
2017-11-10T11:07:23.525Z,22.70
2017-11-10T11:09:51.088Z,21.80
2017-11-10T11:12:18.645Z,21.67
2017-11-10T11:14:46.182Z,24.10
2017-11-10T11:17:25.618Z,22.83
2017-11-10T11:20:21.796Z,24.10
2017-11-10T11:22:49.380Z,21.20
2017-11-10T11:25:17.507Z,21.40
2017-11-10T11:27:45.048Z,21.87
2017-11-10T11:30:14.396Z,21.80
2017-11-10T11:32:41.928Z,22.87
2017-11-10T11:35:09.462Z,21.02
2017-11-10T11:37:37.067Z,22.53
2017-11-10T11:40:04.608Z,21.97
2017-11-10T11:42:32.144Z,21.17
2017-11-10T11:44:59.733Z,20.80
2017-11-10T11:47:27.321Z,21.43
2017-11-10T11:49:55.691Z,19.03
2017-11-10T11:52:23.255Z,19.40
2017-11-10T11:54:50.784Z,21.33
2017-11-10T11:57:19.091Z,20.30
2017-11-10T11:59:46.698Z,22.53
2017-11-10T12:02:16.567Z,17.70
2017-11-10T12:04:44.102Z,19.30
2017-11-10T12:07:12.090Z,17.90
2017-11-10T12:09:39.621Z,19.30
2017-11-10T12:12:08.275Z,18.10
2017-11-10T12:14:35.829Z,17.77
2017-11-10T12:17:03.388Z,19.52
2017-11-10T12:19:31.228Z,18.23
2017-11-10T12:21:59.221Z,19.03
2017-11-10T12:24:26.750Z,18.53
2017-11-10T12:26:54.698Z,20.13
2017-11-10T12:29:22.321Z,17.40
2017-11-10T12:31:49.937Z,18.73
2017-11-10T12:34:17.485Z,20.30
2017-11-10T12:36:45.432Z,20.57
2017-11-10T12:39:15.395Z,21.08
2017-11-10T12:41:42.953Z,19.27
2017-11-10T12:44:10.686Z,19.05
2017-11-10T12:46:38.990Z,20.60
2017-11-10T12:49:06.540Z,21.00
2017-11-10T12:51:34.116Z,19.50
2017-11-10T12:54:01.657Z,20.57
2017-11-10T12:56:29.197Z,20.80
2017-11-10T12:58:57.564Z,21.23
2017-11-10T13:01:25.105Z,22.67
2017-11-10T13:03:52.636Z,21.37
2017-11-10T13:06:20.253Z,22.13
2017-11-10T13:08:48.552Z,21.53
2017-11-10T13:11:16.409Z,20.13
2017-11-10T13:13:44.869Z,20.97
2017-11-10T13:16:12.460Z,21.50
2017-11-10T13:18:39.996Z,20.97
2017-11-10T13:21:08.325Z,20.62
2017-11-10T13:23:35.861Z,21.13
2017-11-10T13:26:03.418Z,21.10
2017-11-10T13:28:31.262Z,23.63
2017-11-10T13:30:59.380Z,23.30
2017-11-10T13:33:26.919Z,22.23
2017-11-10T13:35:54.516Z,22.08
2017-11-10T13:38:22.049Z,22.07
2017-11-10T13:40:49.584Z,20.63
2017-11-10T13:43:17.912Z,22.80
2017-11-10T13:45:45.599Z,21.87
2017-11-10T13:48:14.710Z,22.87
2017-11-10T13:50:43.060Z,22.00
2017-11-10T13:53:10.592Z,23.80
2017-11-10T13:55:38.125Z,21.13
2017-11-10T13:58:05.677Z,23.03
2017-11-10T14:00:33.982Z,22.73
2017-11-10T14:03:01.537Z,21.70
2017-11-10T14:05:29.103Z,22.43
2017-11-10T14:07:56.637Z,23.30
2017-11-10T14:10:24.188Z,23.20
2017-11-10T14:12:51.782Z,22.00
2017-11-10T14:15:19.328Z,22.53
2017-11-10T14:17:46.884Z,21.20
2017-11-10T14:20:16.420Z,20.65
2017-11-10T14:22:43.984Z,21.67
2017-11-10T14:25:11.538Z,22.70
2017-11-10T14:27:39.108Z,19.30
2017-11-10T14:30:07.037Z,20.40
2017-11-10T14:32:35.341Z,19.63
2017-11-10T14:35:02.927Z,20.23
2017-11-10T14:37:30.464Z,18.76
2017-11-10T14:39:58.001Z,20.10
2017-11-10T14:42:25.664Z,21.48
2017-11-10T14:44:53.208Z,20.37
2017-11-10T14:47:20.748Z,20.83
2017-11-10T14:49:48.310Z,21.70
2017-11-10T14:52:16.405Z,21.60
2017-11-10T14:54:43.937Z,24.00
2017-11-10T14:57:11.536Z,20.42
2017-11-10T14:59:39.081Z,19.67
2017-11-10T15:02:06.612Z,18.10
2017-11-10T15:04:34.160Z,18.37
2017-11-10T15:07:01.697Z,19.67
2017-11-10T15:09:30.106Z,19.57
2017-11-10T15:11:57.664Z,21.33
2017-11-10T15:14:25.197Z,20.73
2017-11-10T15:16:52.731Z,20.20
2017-11-10T15:19:20.312Z,22.52
2017-11-10T15:21:47.845Z,22.10
2017-11-10T15:24:16.496Z,20.92
2017-11-10T15:26:44.049Z,21.70
2017-11-10T15:29:11.581Z,20.90
2017-11-10T15:31:39.112Z,22.73
2017-11-10T15:34:06.669Z,21.93
2017-11-10T15:36:34.237Z,19.40
2017-11-10T15:39:01.772Z,19.40
2017-11-10T15:41:30.138Z,19.60
2017-11-10T15:43:57.669Z,20.47
2017-11-10T15:46:25.217Z,18.20
2017-11-10T15:48:52.781Z,18.10
2017-11-10T15:51:20.321Z,20.45
2017-11-10T15:53:47.860Z,19.30
2017-11-10T15:56:15.621Z,20.17
2017-11-10T15:58:43.920Z,19.43
2017-11-10T16:01:11.584Z,20.10
2017-11-10T16:03:39.238Z,25.57
2017-11-10T16:06:06.809Z,25.50
2017-11-10T16:08:35.143Z,20.97
2017-11-10T16:11:02.725Z,19.70
2017-11-10T16:13:30.370Z,20.00
2017-11-10T16:15:58.722Z,20.60
2017-11-10T16:18:27.105Z,20.87
2017-11-10T16:20:54.660Z,19.60
2017-11-10T16:23:22.212Z,19.53
2017-11-10T16:25:50.096Z,19.93
2017-11-10T16:28:17.643Z,21.33
2017-11-10T16:30:45.182Z,18.30
2017-11-10T16:33:14.900Z,19.57
2017-11-10T16:35:42.444Z,19.15
2017-11-10T16:38:09.993Z,18.70
2017-11-10T16:40:37.560Z,18.17
2017-11-10T16:43:05.098Z,18.37
2017-11-10T16:45:32.724Z,18.80
2017-11-10T16:48:00.353Z,19.90
2017-11-10T16:50:27.892Z,18.23
2017-11-10T16:52:55.436Z,17.87
2017-11-10T16:55:22.990Z,18.17
2017-11-10T16:57:51.292Z,17.90
2017-11-10T17:00:18.834Z,17.80
2017-11-10T17:02:47.176Z,16.83
2017-11-10T17:05:16.444Z,17.45
2017-11-10T17:07:44.002Z,17.00
2017-11-10T17:10:11.877Z,16.90
2017-11-10T17:12:39.474Z,17.37
2017-11-10T17:15:07.020Z,15.20
2017-11-10T17:17:34.601Z,15.27
2017-11-10T17:20:02.158Z,15.30
2017-11-10T17:22:29.721Z,14.90
2017-11-10T17:24:57.306Z,15.47
2017-11-10T17:27:24.853Z,14.10
2017-11-10T17:29:53.189Z,13.93
2017-11-10T17:32:20.802Z,12.50
2017-11-10T17:34:48.697Z,12.20
2017-11-10T17:37:16.421Z,13.00
2017-11-10T17:39:44.769Z,14.97
2017-11-10T17:42:12.312Z,14.70
2017-11-10T17:44:39.848Z,13.57
2017-11-10T17:47:07.423Z,12.05
2017-11-10T17:49:34.990Z,12.13
2017-11-10T17:52:02.943Z,9.60
2017-11-10T18:21:41.493Z,11.83
2017-11-10T18:24:09.037Z,10.80
2017-11-10T18:26:36.585Z,11.33
2017-11-10T18:29:04.153Z,10.90
2017-11-10T18:31:31.689Z,11.03
2017-11-10T18:33:59.225Z,10.33
2017-11-10T18:36:28.112Z,12.03
2017-11-10T18:38:56.411Z,10.87
2017-11-10T18:41:23.944Z,10.77
2017-11-10T18:43:52.262Z,9.50
2017-11-10T18:46:20.560Z,10.95
2017-11-10T18:48:53.689Z,11.03
2017-11-10T18:51:21.357Z,9.20
2017-11-10T18:53:48.988Z,10.30
2017-11-10T18:56:16.941Z,10.77
2017-11-10T18:58:44.472Z,10.33
2017-11-10T19:01:12.004Z,10.00
2017-11-10T19:03:39.564Z,10.55
2017-11-10T19:06:07.248Z,11.60
2017-11-10T19:08:34.844Z,11.47
2017-11-10T19:11:02.695Z,10.37
2017-11-10T19:13:30.528Z,11.83
2017-11-10T19:15:58.104Z,10.63
2017-11-10T19:18:25.725Z,11.03
2017-11-10T19:20:53.282Z,13.87
2017-11-10T19:23:20.914Z,11.07
2017-11-10T19:25:48.635Z,10.23
2017-11-10T19:28:17.235Z,11.07
2017-11-10T19:30:44.780Z,9.60
2017-11-10T19:33:14.075Z,8.60
2017-11-10T19:35:42.420Z,9.00
2017-11-10T19:38:10.752Z,8.97
2017-11-10T19:40:38.329Z,9.60
2017-11-10T19:43:05.858Z,9.17
2017-11-10T19:45:33.399Z,10.93
2017-11-10T19:48:01.036Z,9.93
2017-11-10T19:50:28.556Z,8.93
2017-11-10T19:52:56.084Z,7.80
2017-11-10T19:55:23.641Z,8.63
2017-11-10T19:57:51.946Z,6.63
2017-11-10T20:42:36.031Z,8.00
2017-11-10T20:45:03.556Z,8.90
2017-11-10T20:47:31.096Z,8.63
2017-11-10T20:49:58.666Z,8.13
2017-11-10T20:52:26.191Z,8.43
2017-11-10T20:54:53.714Z,7.50
2017-11-10T20:57:21.318Z,7.30
2017-11-10T20:59:48.848Z,7.60
2017-11-10T21:02:16.463Z,7.80
2017-11-10T21:04:44.038Z,7.00
2017-11-10T21:07:11.574Z,8.13
2017-11-10T21:09:39.099Z,8.00
2017-11-10T21:12:06.651Z,9.33
2017-11-10T21:14:34.184Z,9.37
2017-11-10T21:17:01.709Z,7.90
2017-11-10T21:19:29.274Z,8.80
2017-11-10T21:21:56.820Z,7.57
2017-11-10T21:24:24.357Z,9.47
2017-11-10T21:26:52.750Z,8.37
2017-11-10T21:29:20.321Z,7.32
2017-11-10T21:31:47.852Z,7.90
2017-11-10T21:34:16.401Z,8.07
2017-11-10T21:36:43.935Z,7.47
2017-11-10T21:39:11.520Z,7.72
2017-11-10T21:41:39.081Z,7.23
2017-11-10T21:44:06.832Z,7.17
2017-11-10T21:46:34.374Z,8.52
2017-11-10T21:49:02.004Z,7.10
2017-11-10T21:51:30.334Z,7.10
2017-11-10T21:53:57.880Z,7.77
2017-11-10T21:56:25.457Z,7.90
2017-11-10T21:58:52.997Z,6.30
2017-11-10T22:01:20.532Z,7.77
2017-11-10T22:03:48.089Z,6.87
2017-11-10T22:06:16.418Z,6.03
2017-11-10T22:08:43.965Z,7.27
2017-11-10T22:11:12.156Z,7.00
2017-11-10T22:13:39.690Z,7.47
2017-11-10T22:16:07.230Z,7.30
2017-11-10T22:18:34.791Z,7.03
2017-11-10T22:21:02.315Z,7.57
2017-11-10T22:23:30.993Z,7.63
2017-11-10T22:25:58.568Z,7.57
2017-11-10T22:28:26.099Z,6.90
2017-11-10T22:30:54.147Z,6.13
2017-11-10T22:33:21.900Z,6.80
2017-11-10T22:35:49.526Z,6.77
2017-11-10T22:38:17.836Z,6.57
2017-11-10T22:40:45.393Z,6.50
2017-11-10T22:43:15.317Z,7.00
2017-11-10T22:45:43.077Z,6.93
2017-11-10T22:48:10.629Z,7.40
2017-11-10T22:50:38.168Z,7.73
2017-11-10T22:53:06.466Z,6.90
2017-11-10T22:55:34.044Z,6.77
2017-11-10T22:58:01.573Z,6.60
2017-11-10T23:00:29.868Z,7.20
2017-11-10T23:02:57.425Z,6.70
2017-11-10T23:05:24.959Z,6.23
2017-11-10T23:07:52.496Z,8.13
2017-11-10T23:10:20.048Z,7.22
2017-11-10T23:12:47.584Z,7.67
2017-11-10T23:15:16.424Z,8.25
2017-11-10T23:17:44.776Z,8.20
2017-11-10T23:20:12.311Z,8.13
2017-11-10T23:22:39.853Z,9.13
2017-11-10T23:25:07.444Z,7.80
2017-11-10T23:27:34.976Z,8.53
2017-11-10T23:30:02.504Z,9.02
2017-11-10T23:32:30.861Z,9.00
2017-11-10T23:34:58.404Z,9.20
2017-11-10T23:37:25.944Z,9.75
2017-11-10T23:39:53.537Z,10.15
2017-11-10T23:42:21.073Z,8.83
2017-11-10T23:44:48.621Z,10.20
2017-11-10T23:47:16.704Z,10.57
2017-11-10T23:49:44.244Z,9.47
2017-11-10T23:52:11.780Z,10.67
2017-11-10T23:54:40.109Z,11.20
2017-11-10T23:57:07.645Z,9.90
2017-11-10T23:59:35.179Z,10.07
